createdAt,value
2022-11-27T00:01:53.364Z,53.42
2022-11-27T00:04:19.852Z,45.83
2022-11-27T00:06:46.288Z,50.78
2022-11-27T00:09:15.743Z,59.05
2022-11-27T00:11:42.893Z,50.40
2022-11-27T00:14:15.094Z,52.70
2022-11-27T00:16:42.276Z,51.47
2022-11-27T00:19:10.260Z,58.85
2022-11-27T00:21:37.432Z,59.30
2022-11-27T00:24:06.473Z,68.20
2022-11-27T00:26:37.871Z,82.45
2022-11-27T00:29:06.242Z,63.83
2022-11-27T00:31:34.082Z,56.55
2022-11-27T00:34:03.208Z,55.13
2022-11-27T00:36:31.867Z,54.92
2022-11-27T00:38:58.490Z,54.88
2022-11-27T00:41:27.410Z,59.00
2022-11-27T00:43:54.280Z,54.97
2022-11-27T00:46:28.098Z,48.60
2022-11-27T00:48:55.908Z,48.17
2022-11-27T00:51:23.685Z,49.90
2022-11-27T00:53:50.657Z,51.33
2022-11-27T00:56:28.574Z,39.10
2022-11-27T00:58:55.624Z,39.35
2022-11-27T01:01:31.507Z,40.63
2022-11-27T01:03:59.440Z,38.53
2022-11-27T01:06:27.603Z,41.35
2022-11-27T01:08:54.608Z,39.55
2022-11-27T01:11:25.694Z,33.17
2022-11-27T01:13:53.377Z,45.38
2022-11-27T01:16:22.813Z,47.85
2022-11-27T01:18:50.720Z,50.50
2022-11-27T01:21:19.848Z,45.15
2022-11-27T01:23:46.653Z,45.88
2022-11-27T01:26:13.863Z,41.67
2022-11-27T01:28:41.095Z,49.60
2022-11-27T01:31:11.435Z,39.72
2022-11-27T01:33:37.995Z,43.72
2022-11-27T01:36:06.680Z,41.63
2022-11-27T01:38:34.137Z,48.13
2022-11-27T01:41:18.949Z,43.28
2022-11-27T01:43:51.793Z,34.63
2022-11-27T01:46:39.400Z,42.63
2022-11-27T01:49:08.669Z,43.53
2022-11-27T01:51:46.914Z,43.20
2022-11-27T01:54:15.509Z,47.65
2022-11-27T01:56:44.702Z,41.05
2022-11-27T01:59:12.012Z,42.08
2022-11-27T02:01:38.577Z,41.10
2022-11-27T02:04:06.051Z,46.40
2022-11-27T02:06:32.484Z,38.83
2022-11-27T02:08:58.919Z,53.67
2022-11-27T02:11:42.911Z,40.90
2022-11-27T02:14:17.628Z,35.90
2022-11-27T02:17:21.692Z,58.03
2022-11-27T02:20:15.465Z,48.35
2022-11-27T02:23:19.525Z,42.72
2022-11-27T02:26:01.907Z,40.78
2022-11-27T02:28:49.902Z,48.90
2022-11-27T02:31:22.285Z,36.80
2022-11-27T02:33:55.128Z,40.67
2022-11-27T02:36:26.435Z,38.75
2022-11-27T02:39:05.774Z,38.13
2022-11-27T02:41:40.474Z,38.08
2022-11-27T02:44:09.903Z,32.60
2022-11-27T02:46:37.821Z,36.50
2022-11-27T02:49:09.698Z,35.85
2022-11-27T02:51:41.148Z,32.03
2022-11-27T02:54:12.253Z,26.75
2022-11-27T02:56:40.649Z,33.83
2022-11-27T02:59:11.992Z,34.15
2022-11-27T03:01:45.096Z,33.15
2022-11-27T03:04:18.760Z,34.40
2022-11-27T03:06:51.814Z,36.95
2022-11-27T03:09:31.918Z,34.60
2022-11-27T03:11:58.834Z,33.88
2022-11-27T03:14:25.736Z,32.03
2022-11-27T03:17:02.527Z,34.70
2022-11-27T03:19:41.131Z,33.22
2022-11-27T03:22:07.672Z,30.67
2022-11-27T03:24:35.995Z,31.25
2022-11-27T03:27:04.467Z,28.98
2022-11-27T03:29:37.170Z,23.73
2022-11-27T03:32:04.472Z,39.10
2022-11-27T03:34:31.736Z,31.88
2022-11-27T03:36:58.327Z,25.27
2022-11-27T03:39:25.915Z,31.70
2022-11-27T03:42:24.817Z,29.60
2022-11-27T03:44:57.597Z,35.58
2022-11-27T03:47:26.986Z,27.05
2022-11-27T03:50:12.237Z,23.95
2022-11-27T03:53:22.396Z,26.70
2022-11-27T03:56:13.889Z,23.20
2022-11-27T03:58:48.682Z,26.83
2022-11-27T04:01:18.234Z,28.35
2022-11-27T04:03:44.694Z,22.38
2022-11-27T04:06:11.765Z,24.08
2022-11-27T04:08:39.323Z,21.42
2022-11-27T04:11:05.788Z,23.10
2022-11-27T04:13:32.194Z,21.58
2022-11-27T04:16:02.602Z,20.65
2022-11-27T04:18:29.467Z,23.85
2022-11-27T04:20:55.960Z,25.38
2022-11-27T04:23:22.410Z,15.98
2022-11-27T04:25:49.488Z,18.98
2022-11-27T04:28:17.533Z,16.73
2022-11-27T04:30:44.621Z,27.30
2022-11-27T04:33:11.035Z,24.83
2022-11-27T04:35:37.472Z,23.73
2022-11-27T04:38:03.880Z,20.98
2022-11-27T04:40:30.257Z,19.77
2022-11-27T04:42:56.694Z,24.42
2022-11-27T04:45:23.068Z,19.15
2022-11-27T04:47:49.416Z,19.52
2022-11-27T04:50:15.904Z,17.67
2022-11-27T04:52:42.369Z,21.85
2022-11-27T04:55:09.235Z,23.30
2022-11-27T04:57:35.712Z,24.05
2022-11-27T05:00:04.393Z,24.77
2022-11-27T05:02:30.831Z,18.60
2022-11-27T05:04:57.336Z,20.60
2022-11-27T05:07:23.890Z,23.83
2022-11-27T05:09:50.750Z,19.77
2022-11-27T05:12:17.439Z,13.90
2022-11-27T05:14:43.939Z,17.73
2022-11-27T05:17:10.463Z,17.00
2022-11-27T05:19:36.885Z,19.77
2022-11-27T05:22:03.249Z,16.77
2022-11-27T05:24:29.721Z,15.60
2022-11-27T05:26:56.989Z,15.77
2022-11-27T05:29:24.474Z,20.80
2022-11-27T05:31:51.205Z,19.75
2022-11-27T05:34:17.849Z,14.45
2022-11-27T05:36:44.334Z,15.18
2022-11-27T05:39:11.535Z,18.40
2022-11-27T05:41:40.277Z,24.75
2022-11-27T05:44:07.425Z,19.00
2022-11-27T05:46:34.073Z,26.85
2022-11-27T05:49:00.541Z,20.63
2022-11-27T05:51:27.015Z,17.70
2022-11-27T05:53:53.586Z,30.77
2022-11-27T05:56:20.013Z,26.85
2022-11-27T05:58:48.262Z,22.50
2022-11-27T06:01:16.847Z,20.58
2022-11-27T06:03:43.322Z,22.50
2022-11-27T06:06:13.523Z,17.10
2022-11-27T06:08:41.236Z,19.45
2022-11-27T06:11:10.041Z,19.35
2022-11-27T06:13:37.006Z,17.70
2022-11-27T06:16:15.299Z,18.35
2022-11-27T06:18:42.197Z,16.10
2022-11-27T06:21:10.572Z,16.92
2022-11-27T06:23:37.006Z,17.77
2022-11-27T06:26:16.490Z,18.92
2022-11-27T06:28:43.155Z,18.98
2022-11-27T06:31:17.428Z,17.38
2022-11-27T06:33:45.589Z,18.00
2022-11-27T06:36:12.059Z,17.65
2022-11-27T06:38:38.795Z,19.45
2022-11-27T06:41:10.735Z,18.20
2022-11-27T06:43:37.464Z,22.05
2022-11-27T06:46:06.031Z,22.25
2022-11-27T06:48:33.807Z,15.35
2022-11-27T06:51:02.293Z,14.90
2022-11-27T06:53:30.320Z,17.48
2022-11-27T06:55:57.353Z,20.90
2022-11-27T06:58:30.717Z,16.73
2022-11-27T07:01:06.211Z,19.58
2022-11-27T07:03:32.656Z,20.48
2022-11-27T07:06:05.634Z,17.77
2022-11-27T07:08:32.604Z,17.42
2022-11-27T07:11:15.227Z,17.90
2022-11-27T07:13:41.986Z,19.70
2022-11-27T07:16:10.256Z,15.85
2022-11-27T07:18:42.732Z,13.75
2022-11-27T07:21:10.010Z,12.98
2022-11-27T07:23:37.275Z,13.63
2022-11-27T07:26:09.364Z,18.60
2022-11-27T07:28:35.811Z,14.32
2022-11-27T07:31:02.610Z,12.25
2022-11-27T07:33:29.048Z,14.68
2022-11-27T07:36:00.321Z,13.15
2022-11-27T07:38:26.829Z,15.10
2022-11-27T07:40:54.046Z,15.43
2022-11-27T07:43:20.958Z,13.35
2022-11-27T07:45:47.584Z,15.02
2022-11-27T07:48:14.061Z,19.60
2022-11-27T07:50:40.897Z,14.77
2022-11-27T07:53:07.435Z,20.25
2022-11-27T07:55:33.958Z,18.05
2022-11-27T07:58:00.420Z,18.55
2022-11-27T08:00:26.944Z,18.73
2022-11-27T08:02:53.427Z,21.60
2022-11-27T08:05:19.911Z,20.00
2022-11-27T08:07:46.360Z,20.95
2022-11-27T08:10:12.866Z,23.77
2022-11-27T08:12:39.248Z,23.15
2022-11-27T08:15:06.205Z,23.38
2022-11-27T08:17:32.695Z,22.23
2022-11-27T08:19:59.135Z,18.52
2022-11-27T08:22:25.731Z,19.17
2022-11-27T08:24:52.755Z,22.63
2022-11-27T08:27:19.235Z,21.00
2022-11-27T08:29:45.657Z,27.80
2022-11-27T08:32:12.149Z,24.02
2022-11-27T08:34:39.038Z,24.95
2022-11-27T08:37:06.375Z,34.70
2022-11-27T08:39:33.337Z,30.13
2022-11-27T08:42:00.314Z,30.65
2022-11-27T08:44:26.746Z,25.52
2022-11-27T08:46:53.178Z,34.22
2022-11-27T08:49:19.638Z,34.03
2022-11-27T08:51:46.107Z,28.23
2022-11-27T08:54:12.581Z,30.92
2022-11-27T08:56:38.960Z,27.77
2022-11-27T08:59:05.333Z,34.25
2022-11-27T09:01:32.813Z,27.63
2022-11-27T09:03:59.729Z,30.33
2022-11-27T09:06:32.200Z,30.30
2022-11-27T09:09:00.586Z,38.53
2022-11-27T09:11:28.746Z,36.00
2022-11-27T09:13:55.535Z,28.83
2022-11-27T09:16:22.871Z,33.00
2022-11-27T09:18:51.784Z,29.85
2022-11-27T09:21:21.124Z,32.97
2022-11-27T09:23:48.067Z,32.88
2022-11-27T09:26:17.061Z,33.08
2022-11-27T09:28:44.900Z,27.40
2022-11-27T09:31:14.168Z,35.60
2022-11-27T09:33:42.079Z,32.83
2022-11-27T09:36:10.414Z,30.95
2022-11-27T09:38:37.739Z,33.10
2022-11-27T09:41:43.255Z,34.33
2022-11-27T09:44:40.244Z,31.73
2022-11-27T09:47:14.721Z,29.25
2022-11-27T09:49:51.081Z,35.72
2022-11-27T09:52:27.720Z,33.03
2022-11-27T09:55:14.724Z,33.83
2022-11-27T09:57:46.452Z,36.25
2022-11-27T10:00:22.292Z,25.63
2022-11-27T10:02:51.649Z,26.00
2022-11-27T10:05:43.286Z,29.45
2022-11-27T10:08:38.888Z,31.00
2022-11-27T10:11:34.473Z,36.80
2022-11-27T10:14:24.293Z,31.25
2022-11-27T10:17:01.931Z,27.95
2022-11-27T10:19:47.590Z,33.05
2022-11-27T10:22:34.352Z,22.73
2022-11-27T10:25:03.633Z,26.90
2022-11-27T10:27:41.807Z,29.58
2022-11-27T10:30:21.148Z,30.27
2022-11-27T10:32:56.295Z,22.90
2022-11-27T10:35:32.492Z,22.88
2022-11-27T10:38:11.904Z,29.70
2022-11-27T10:44:26.344Z,20.65
2022-11-27T10:46:57.871Z,25.85
2022-11-27T10:49:24.425Z,21.23
2022-11-27T10:51:50.809Z,28.23
2022-11-27T10:54:26.387Z,27.73
2022-11-27T10:57:34.733Z,29.52
2022-11-27T11:00:24.895Z,25.33
2022-11-27T11:03:02.029Z,28.00
2022-11-27T11:08:19.501Z,23.98
2022-11-27T11:11:08.785Z,20.73
2022-11-27T11:13:41.081Z,25.80
2022-11-27T11:16:24.156Z,26.30
2022-11-27T11:18:53.104Z,22.55
2022-11-27T11:21:25.253Z,21.08
2022-11-27T11:23:58.663Z,21.10
2022-11-27T11:26:35.572Z,24.75
2022-11-27T11:29:07.623Z,28.65
2022-11-27T11:31:38.686Z,21.33
2022-11-27T11:34:19.420Z,22.08
2022-11-27T11:36:56.358Z,21.63
2022-11-27T11:39:26.588Z,19.30
2022-11-27T11:41:53.103Z,24.27
2022-11-27T11:44:29.768Z,22.08
2022-11-27T11:46:56.177Z,18.88
2022-11-27T11:49:27.335Z,23.38
2022-11-27T11:52:21.061Z,34.90
2022-11-27T11:55:00.397Z,25.83
2022-11-27T11:58:00.857Z,21.77
2022-11-27T12:00:53.143Z,21.33
2022-11-27T12:03:43.964Z,25.45
2022-11-27T12:06:36.784Z,22.38
2022-11-27T12:09:16.089Z,17.70
2022-11-27T12:12:10.078Z,16.30
2022-11-27T12:14:49.613Z,21.30
2022-11-27T12:17:43.825Z,16.95
2022-11-27T12:20:41.051Z,18.92
2022-11-27T12:23:55.279Z,19.30
2022-11-27T12:26:33.661Z,18.65
2022-11-27T12:29:19.676Z,17.10
2022-11-27T12:31:55.314Z,17.48
2022-11-27T12:34:35.140Z,18.42
2022-11-27T12:37:04.205Z,19.45
2022-11-27T12:40:00.757Z,18.05
2022-11-27T12:42:39.262Z,16.95
2022-11-27T12:45:17.629Z,15.77
2022-11-27T12:47:49.106Z,19.13
2022-11-27T12:50:43.169Z,17.73
2022-11-27T12:53:41.928Z,18.02
2022-11-27T12:56:16.967Z,25.30
2022-11-27T12:58:48.563Z,15.13
2022-11-27T13:01:36.118Z,18.33
2022-11-27T13:04:12.353Z,15.57
2022-11-27T13:07:02.777Z,14.95
2022-11-27T13:10:08.123Z,13.73
2022-11-27T13:12:48.262Z,18.25
2022-11-27T13:15:34.459Z,14.93
2022-11-27T13:18:11.913Z,15.65
2022-11-27T13:20:40.648Z,15.60
2022-11-27T13:23:07.314Z,16.88
2022-11-27T13:25:40.880Z,14.68
2022-11-27T13:28:09.065Z,19.70
2022-11-27T13:30:37.429Z,12.02
2022-11-27T13:33:06.333Z,16.42
2022-11-27T13:35:40.099Z,14.05
2022-11-27T13:38:09.398Z,15.68
2022-11-27T13:40:48.745Z,15.45
2022-11-27T13:43:28.914Z,15.73
2022-11-27T13:46:05.143Z,15.18
2022-11-27T13:48:35.021Z,12.77
2022-11-27T13:51:01.972Z,16.42
2022-11-27T13:57:17.234Z,15.63
2022-11-27T14:00:08.076Z,15.65
2022-11-27T14:02:47.466Z,13.07
2022-11-27T14:05:17.579Z,10.70
2022-11-27T14:07:56.194Z,14.77
2022-11-27T14:10:26.027Z,14.85
2022-11-27T14:13:04.338Z,10.75
2022-11-27T14:15:33.168Z,12.35
2022-11-27T14:18:17.408Z,14.55
2022-11-27T14:20:57.843Z,19.77
2022-11-27T14:23:49.399Z,11.05
2022-11-27T14:26:15.955Z,14.82
2022-11-27T14:28:45.291Z,14.68
2022-11-27T14:31:31.828Z,13.73
2022-11-27T14:34:19.666Z,12.75
2022-11-27T14:36:52.226Z,14.15
2022-11-27T14:39:24.022Z,11.27
2022-11-27T14:41:56.920Z,15.70
2022-11-27T14:44:23.313Z,14.63
2022-11-27T14:46:52.047Z,16.67
2022-11-27T14:49:20.549Z,17.92
2022-11-27T14:51:47.795Z,11.60
2022-11-27T14:54:27.016Z,24.30
2022-11-27T14:56:54.130Z,22.48
2022-11-27T14:59:23.278Z,25.25
2022-11-27T15:02:11.675Z,19.75
2022-11-27T15:04:41.368Z,15.93
2022-11-27T15:07:27.684Z,18.92
2022-11-27T15:09:59.638Z,23.95
2022-11-27T15:12:34.032Z,18.10
2022-11-27T15:15:15.413Z,18.27
2022-11-27T15:17:45.357Z,18.23
2022-11-27T15:20:21.473Z,15.65
2022-11-27T15:22:53.763Z,16.15
2022-11-27T15:25:33.381Z,14.20
2022-11-27T15:27:59.871Z,16.73
2022-11-27T15:30:26.549Z,16.02
2022-11-27T15:32:55.308Z,19.00
2022-11-27T15:35:27.592Z,17.58
2022-11-27T15:37:56.697Z,18.67
2022-11-27T15:40:29.254Z,19.27
2022-11-27T15:42:55.621Z,16.58
2022-11-27T15:45:22.393Z,17.58
2022-11-27T15:47:48.957Z,15.65
2022-11-27T15:50:17.055Z,19.67
2022-11-27T15:52:43.514Z,19.60
2022-11-27T15:55:17.380Z,19.80
2022-11-27T15:57:43.947Z,17.00
2022-11-27T16:00:10.947Z,17.98
2022-11-27T16:02:37.544Z,17.48
2022-11-27T16:05:06.016Z,17.55
2022-11-27T16:07:32.858Z,24.80
2022-11-27T16:09:59.654Z,21.77
2022-11-27T16:12:26.124Z,21.45
2022-11-27T16:14:52.660Z,26.42
2022-11-27T16:17:19.127Z,18.27
2022-11-27T16:19:46.106Z,22.55
2022-11-27T16:22:12.577Z,25.15
2022-11-27T16:24:40.052Z,24.02
2022-11-27T16:27:07.305Z,31.35
2022-11-27T16:29:33.793Z,21.08
2022-11-27T16:32:02.268Z,25.27
2022-11-27T16:34:28.921Z,25.58
2022-11-27T16:36:55.331Z,24.30
2022-11-27T16:39:21.878Z,23.80
2022-11-27T16:41:48.446Z,20.45
2022-11-27T16:44:15.441Z,26.15
2022-11-27T16:46:43.871Z,17.63
2022-11-27T16:49:11.159Z,21.48
2022-11-27T16:51:39.304Z,20.13
2022-11-27T16:54:07.812Z,18.23
2022-11-27T16:56:35.070Z,24.58
2022-11-27T16:59:03.271Z,24.98
2022-11-27T17:01:35.614Z,24.10
2022-11-27T17:04:08.911Z,23.90
2022-11-27T17:06:38.036Z,20.25
2022-11-27T17:09:07.592Z,21.02
2022-11-27T17:11:35.691Z,24.83
2022-11-27T17:14:05.804Z,22.65
2022-11-27T17:16:32.730Z,22.77
2022-11-27T17:18:59.589Z,18.65
2022-11-27T17:21:28.991Z,22.05
2022-11-27T17:23:57.543Z,24.95
2022-11-27T17:26:25.147Z,25.65
2022-11-27T17:28:55.579Z,21.80
2022-11-27T17:31:26.538Z,19.63
2022-11-27T17:33:57.089Z,22.25
2022-11-27T17:36:25.031Z,23.75
2022-11-27T17:38:52.076Z,18.05
2022-11-27T17:41:19.586Z,18.23
2022-11-27T17:43:46.990Z,21.90
2022-11-27T17:46:17.690Z,18.27
2022-11-27T17:48:44.947Z,27.57
2022-11-27T17:51:11.637Z,29.50
2022-11-27T17:53:38.264Z,20.90
2022-11-27T17:56:10.303Z,19.90
2022-11-27T17:58:37.301Z,15.63
2022-11-27T18:01:05.907Z,24.00
2022-11-27T18:03:33.667Z,20.63
2022-11-27T18:06:05.220Z,19.45
2022-11-27T18:08:31.772Z,20.30
2022-11-27T18:11:03.788Z,25.83
2022-11-27T18:13:32.469Z,20.73
2022-11-27T18:16:06.324Z,20.25
2022-11-27T18:18:33.123Z,20.40
2022-11-27T18:21:07.050Z,18.10
2022-11-27T18:23:36.065Z,19.45
2022-11-27T18:26:07.001Z,23.17
2022-11-27T18:28:33.712Z,17.38
2022-11-27T18:31:12.292Z,17.45
2022-11-27T18:33:39.289Z,20.17
2022-11-27T18:36:07.874Z,16.90
2022-11-27T18:38:36.433Z,19.35
2022-11-27T18:41:20.670Z,18.80
2022-11-27T18:43:47.558Z,20.20
2022-11-27T18:46:15.227Z,22.15
2022-11-27T18:48:43.584Z,17.50
2022-11-27T18:51:13.577Z,20.92
2022-11-27T18:53:40.496Z,17.27
2022-11-27T18:56:12.639Z,20.35
2022-11-27T18:58:40.707Z,16.63
2022-11-27T19:01:10.144Z,21.00
2022-11-27T19:03:42.795Z,19.30
2022-11-27T19:06:10.945Z,21.02
2022-11-27T19:08:37.903Z,22.67
2022-11-27T19:11:07.707Z,19.52
2022-11-27T19:13:34.895Z,21.27
2022-11-27T19:16:09.006Z,21.52
2022-11-27T19:18:36.928Z,16.67
2022-11-27T19:21:21.638Z,23.42
2022-11-27T19:23:49.334Z,20.45
2022-11-27T19:26:19.644Z,19.75
2022-11-27T19:28:49.853Z,23.73
2022-11-27T19:31:16.529Z,18.27
2022-11-27T19:33:43.867Z,20.80
2022-11-27T19:36:14.326Z,22.25
2022-11-27T19:38:42.528Z,17.90
2022-11-27T19:41:18.482Z,22.83
2022-11-27T19:43:45.618Z,18.33
2022-11-27T19:46:24.620Z,17.33
2022-11-27T19:48:58.466Z,20.02
2022-11-27T19:51:26.421Z,16.98
2022-11-27T19:53:53.114Z,20.85
2022-11-27T19:56:19.687Z,20.27
2022-11-27T19:58:46.377Z,20.38
2022-11-27T20:01:15.995Z,15.93
2022-11-27T20:03:42.969Z,16.88
2022-11-27T20:06:11.948Z,23.65
2022-11-27T20:08:39.443Z,22.35
2022-11-27T20:11:08.980Z,25.02
2022-11-27T20:13:36.011Z,19.10
2022-11-27T20:16:07.171Z,24.50
2022-11-27T20:18:33.962Z,19.35
2022-11-27T20:21:08.650Z,21.85
2022-11-27T20:23:35.833Z,22.40
2022-11-27T20:26:06.457Z,19.73
2022-11-27T20:28:33.415Z,20.25
2022-11-27T20:31:02.813Z,18.05
2022-11-27T20:33:30.656Z,18.90
2022-11-27T20:35:58.013Z,17.10
2022-11-27T20:38:26.374Z,20.58
2022-11-27T20:40:53.070Z,23.05
2022-11-27T20:43:19.537Z,19.48
2022-11-27T20:45:46.117Z,17.95
2022-11-27T20:48:12.618Z,21.30
2022-11-27T20:50:39.866Z,17.77
2022-11-27T20:53:06.884Z,17.98
2022-11-27T20:55:34.348Z,29.73
2022-11-27T20:58:00.781Z,21.02
2022-11-27T21:00:27.246Z,20.80
2022-11-27T21:02:53.721Z,25.00
2022-11-27T21:05:20.207Z,21.35
2022-11-27T21:07:46.798Z,20.92
2022-11-27T21:10:15.892Z,23.38
2022-11-27T21:12:43.220Z,20.30
2022-11-27T21:15:10.404Z,21.42
2022-11-27T21:17:36.863Z,25.10
2022-11-27T21:20:04.489Z,18.63
2022-11-27T21:22:31.330Z,24.63
2022-11-27T21:24:57.721Z,21.45
2022-11-27T21:27:24.233Z,18.65
2022-11-27T21:29:50.643Z,17.85
2022-11-27T21:32:18.111Z,22.52
2022-11-27T21:34:44.753Z,20.10
2022-11-27T21:37:11.536Z,20.90
2022-11-27T21:39:38.468Z,32.22
2022-11-27T21:42:05.009Z,21.35
2022-11-27T21:44:31.407Z,19.40
2022-11-27T21:46:59.821Z,18.73
2022-11-27T21:49:26.760Z,16.77
2022-11-27T21:51:54.460Z,18.83
2022-11-27T21:54:20.934Z,22.55
2022-11-27T21:56:50.722Z,18.48
2022-11-27T21:59:17.098Z,16.65
2022-11-27T22:01:45.545Z,22.13
2022-11-27T22:04:12.228Z,20.17
2022-11-27T22:06:40.646Z,19.83
2022-11-27T22:09:13.379Z,18.80
2022-11-27T22:11:41.677Z,21.15
2022-11-27T22:14:08.996Z,19.17
2022-11-27T22:16:44.145Z,20.35
2022-11-27T22:19:11.331Z,19.88
2022-11-27T22:21:37.780Z,21.60
2022-11-27T22:24:04.406Z,21.90
2022-11-27T22:26:30.905Z,19.80
2022-11-27T22:28:58.440Z,19.33
2022-11-27T22:31:29.511Z,18.95
2022-11-27T22:33:57.243Z,24.08
2022-11-27T22:36:31.099Z,22.40
2022-11-27T22:38:58.921Z,22.65
2022-11-27T22:41:27.776Z,21.88
2022-11-27T22:43:54.426Z,22.58
2022-11-27T22:46:26.751Z,29.98
2022-11-27T22:48:54.700Z,29.10
2022-11-27T22:51:21.912Z,20.83
2022-11-27T22:53:48.556Z,27.10
2022-11-27T22:56:15.299Z,24.35
2022-11-27T22:58:42.182Z,31.33
2022-11-27T23:01:29.321Z,24.42
2022-11-27T23:03:58.457Z,21.80
2022-11-27T23:06:24.975Z,22.55
2022-11-27T23:08:51.758Z,25.20
2022-11-27T23:11:22.484Z,20.90
2022-11-27T23:13:50.118Z,22.03
2022-11-27T23:16:17.620Z,21.80
2022-11-27T23:18:44.228Z,23.58
2022-11-27T23:21:22.261Z,30.42
2022-11-27T23:23:49.237Z,28.13
2022-11-27T23:26:19.496Z,24.20
2022-11-27T23:28:47.742Z,26.80
2022-11-27T23:31:34.088Z,22.55
2022-11-27T23:34:03.386Z,29.40
2022-11-27T23:36:31.542Z,33.40
2022-11-27T23:39:01.709Z,25.63
2022-11-27T23:41:30.244Z,25.38
2022-11-27T23:43:56.786Z,23.13
2022-11-27T23:46:26.176Z,22.27
2022-11-27T23:48:57.475Z,27.58
2022-11-27T23:51:26.695Z,26.75
2022-11-27T23:53:53.998Z,24.17
2022-11-27T23:56:26.326Z,23.45
2022-11-27T23:58:54.513Z,28.38
